sensor_id;sensor_type;location;lat;lon;timestamp;P1;durP1;ratioP1;P2;durP2;ratioP2
54139;SDS011;40046;53.254;5.900;2023-01-19T00:01:11;14.07;;;0.90;;
54139;SDS011;40046;53.254;5.900;2023-01-19T00:03:37;2.97;;;0.80;;
54139;SDS011;40046;53.254;5.900;2023-01-19T00:06:06;8.85;;;1.80;;
54139;SDS011;40046;53.254;5.900;2023-01-19T00:08:33;6.20;;;0.85;;
54139;SDS011;40046;53.254;5.900;2023-01-19T00:10:59;4.55;;;0.55;;
54139;SDS011;40046;53.254;5.900;2023-01-19T00:13:26;6.75;;;0.55;;
54139;SDS011;40046;53.254;5.900;2023-01-19T00:15:52;2.17;;;0.73;;
54139;SDS011;40046;53.254;5.900;2023-01-19T00:18:18;5.13;;;1.02;;
54139;SDS011;40046;53.254;5.900;2023-01-19T00:20:45;3.67;;;0.70;;
54139;SDS011;40046;53.254;5.900;2023-01-19T00:23:11;5.55;;;1.48;;
54139;SDS011;40046;53.254;5.900;2023-01-19T00:25:38;3.20;;;0.70;;
54139;SDS011;40046;53.254;5.900;2023-01-19T00:28:07;6.55;;;0.93;;
54139;SDS011;40046;53.254;5.900;2023-01-19T00:30:33;8.70;;;0.52;;
54139;SDS011;40046;53.254;5.900;2023-01-19T00:32:59;3.45;;;0.60;;
54139;SDS011;40046;53.254;5.900;2023-01-19T00:35:25;8.40;;;0.82;;
54139;SDS011;40046;53.254;5.900;2023-01-19T00:37:51;5.25;;;1.35;;
54139;SDS011;40046;53.254;5.900;2023-01-19T00:40:17;5.82;;;0.95;;
54139;SDS011;40046;53.254;5.900;2023-01-19T00:42:44;5.30;;;1.35;;
54139;SDS011;40046;53.254;5.900;2023-01-19T00:45:15;5.72;;;0.70;;
54139;SDS011;40046;53.254;5.900;2023-01-19T00:47:42;3.30;;;0.65;;
54139;SDS011;40046;53.254;5.900;2023-01-19T00:50:09;10.35;;;0.93;;
54139;SDS011;40046;53.254;5.900;2023-01-19T00:52:36;10.07;;;1.10;;
54139;SDS011;40046;53.254;5.900;2023-01-19T00:55:03;9.48;;;0.73;;
54139;SDS011;40046;53.254;5.900;2023-01-19T00:57:29;8.60;;;1.35;;
54139;SDS011;40046;53.254;5.900;2023-01-19T00:59:55;5.95;;;0.55;;
54139;SDS011;40046;53.254;5.900;2023-01-19T01:02:22;8.10;;;1.58;;
54139;SDS011;40046;53.254;5.900;2023-01-19T01:04:48;5.60;;;0.50;;
54139;SDS011;40046;53.254;5.900;2023-01-19T01:07:21;6.85;;;0.65;;
54139;SDS011;40046;53.254;5.900;2023-01-19T01:09:47;10.35;;;1.08;;
54139;SDS011;40046;53.254;5.900;2023-01-19T01:12:14;11.65;;;1.02;;
54139;SDS011;40046;53.254;5.900;2023-01-19T01:14:40;14.07;;;1.23;;
54139;SDS011;40046;53.254;5.900;2023-01-19T01:17:06;6.05;;;0.77;;
54139;SDS011;40046;53.254;5.900;2023-01-19T01:19:36;5.60;;;0.80;;
54139;SDS011;40046;53.254;5.900;2023-01-19T01:22:02;6.00;;;1.80;;
54139;SDS011;40046;53.254;5.900;2023-01-19T01:24:29;9.52;;;1.38;;
54139;SDS011;40046;53.254;5.900;2023-01-19T01:26:56;8.90;;;0.85;;
54139;SDS011;40046;53.254;5.900;2023-01-19T01:29:22;5.22;;;0.77;;
54139;SDS011;40046;53.254;5.900;2023-01-19T01:31:48;5.57;;;1.55;;
54139;SDS011;40046;53.254;5.900;2023-01-19T01:34:14;7.70;;;0.88;;
54139;SDS011;40046;53.254;5.900;2023-01-19T01:36:40;7.55;;;0.50;;
54139;SDS011;40046;53.254;5.900;2023-01-19T01:39:07;5.38;;;0.60;;
54139;SDS011;40046;53.254;5.900;2023-01-19T01:41:33;3.47;;;1.73;;
54139;SDS011;40046;53.254;5.900;2023-01-19T01:43:59;3.63;;;0.60;;
54139;SDS011;40046;53.254;5.900;2023-01-19T01:46:28;8.57;;;1.00;;
54139;SDS011;40046;53.254;5.900;2023-01-19T01:49:11;7.53;;;0.80;;
54139;SDS011;40046;53.254;5.900;2023-01-19T01:51:42;3.17;;;0.50;;
54139;SDS011;40046;53.254;5.900;2023-01-19T01:54:22;7.10;;;0.80;;
54139;SDS011;40046;53.254;5.900;2023-01-19T01:56:50;7.25;;;0.75;;
54139;SDS011;40046;53.254;5.900;2023-01-19T02:01:56;5.53;;;0.50;;
54139;SDS011;40046;53.254;5.900;2023-01-19T02:04:58;5.50;;;0.50;;
54139;SDS011;40046;53.254;5.900;2023-01-19T02:10:31;10.88;;;1.08;;
54139;SDS011;40046;53.254;5.900;2023-01-19T02:13:17;4.78;;;0.80;;
54139;SDS011;40046;53.254;5.900;2023-01-19T02:15:47;9.85;;;0.50;;
54139;SDS011;40046;53.254;5.900;2023-01-19T02:18:15;11.63;;;1.33;;
54139;SDS011;40046;53.254;5.900;2023-01-19T02:20:42;7.97;;;0.52;;
54139;SDS011;40046;53.254;5.900;2023-01-19T02:23:12;4.95;;;0.65;;
54139;SDS011;40046;53.254;5.900;2023-01-19T02:25:40;6.38;;;0.63;;
54139;SDS011;40046;53.254;5.900;2023-01-19T02:28:06;7.97;;;0.65;;
54139;SDS011;40046;53.254;5.900;2023-01-19T02:30:32;12.77;;;0.73;;
54139;SDS011;40046;53.254;5.900;2023-01-19T02:33:00;6.95;;;0.57;;
54139;SDS011;40046;53.254;5.900;2023-01-19T02:35:26;8.00;;;0.63;;
54139;SDS011;40046;53.254;5.900;2023-01-19T02:37:52;5.95;;;0.55;;
54139;SDS011;40046;53.254;5.900;2023-01-19T02:40:19;9.90;;;1.05;;
54139;SDS011;40046;53.254;5.900;2023-01-19T02:42:49;9.65;;;0.90;;
54139;SDS011;40046;53.254;5.900;2023-01-19T02:45:16;8.27;;;0.73;;
54139;SDS011;40046;53.254;5.900;2023-01-19T02:47:44;7.10;;;0.95;;
54139;SDS011;40046;53.254;5.900;2023-01-19T02:52:57;6.97;;;0.90;;
54139;SDS011;40046;53.254;5.900;2023-01-19T02:55:27;3.05;;;0.30;;
54139;SDS011;40046;53.254;5.900;2023-01-19T02:58:14;3.90;;;0.40;;
54139;SDS011;40046;53.254;5.900;2023-01-19T03:00:46;6.13;;;0.77;;
54139;SDS011;40046;53.254;5.900;2023-01-19T03:03:30;5.40;;;0.93;;
54139;SDS011;40046;53.254;5.900;2023-01-19T03:06:04;3.55;;;0.82;;
54139;SDS011;40046;53.254;5.900;2023-01-19T03:11:13;5.22;;;0.80;;
54139;SDS011;40046;53.254;5.900;2023-01-19T03:13:53;8.85;;;0.82;;
54139;SDS011;40046;53.254;5.900;2023-01-19T03:19:48;11.90;;;2.47;;
54139;SDS011;40046;53.254;5.900;2023-01-19T03:22:00;8.10;;;1.15;;
54139;SDS011;40046;53.254;5.900;2023-01-19T03:24:29;12.70;;;1.33;;
54139;SDS011;40046;53.254;5.900;2023-01-19T03:26:57;9.18;;;1.70;;
54139;SDS011;40046;53.254;5.900;2023-01-19T03:29:29;9.80;;;1.08;;
54139;SDS011;40046;53.254;5.900;2023-01-19T03:32:00;14.00;;;2.88;;
54139;SDS011;40046;53.254;5.900;2023-01-19T03:34:27;11.02;;;1.42;;
54139;SDS011;40046;53.254;5.900;2023-01-19T03:36:55;11.25;;;1.15;;
54139;SDS011;40046;53.254;5.900;2023-01-19T03:39:23;7.68;;;1.50;;
54139;SDS011;40046;53.254;5.900;2023-01-19T03:41:57;11.05;;;1.33;;
54139;SDS011;40046;53.254;5.900;2023-01-19T03:44:24;7.53;;;1.40;;
54139;SDS011;40046;53.254;5.900;2023-01-19T03:46:51;9.38;;;0.75;;
54139;SDS011;40046;53.254;5.900;2023-01-19T03:49:18;10.40;;;2.33;;
54139;SDS011;40046;53.254;5.900;2023-01-19T03:51:44;8.77;;;0.90;;
54139;SDS011;40046;53.254;5.900;2023-01-19T03:54:10;7.13;;;1.95;;
54139;SDS011;40046;53.254;5.900;2023-01-19T03:56:37;8.23;;;0.75;;
54139;SDS011;40046;53.254;5.900;2023-01-19T03:59:03;4.78;;;0.57;;
54139;SDS011;40046;53.254;5.900;2023-01-19T04:01:32;0.75;;;0.25;;
54139;SDS011;40046;53.254;5.900;2023-01-19T04:03:58;2.35;;;0.40;;
54139;SDS011;40046;53.254;5.900;2023-01-19T04:06:24;5.53;;;0.50;;
54139;SDS011;40046;53.254;5.900;2023-01-19T04:08:51;6.93;;;1.05;;
54139;SDS011;40046;53.254;5.900;2023-01-19T04:11:18;6.50;;;0.60;;
54139;SDS011;40046;53.254;5.900;2023-01-19T04:13:44;7.97;;;0.82;;
54139;SDS011;40046;53.254;5.900;2023-01-19T04:16:10;1.10;;;0.63;;
54139;SDS011;40046;53.254;5.900;2023-01-19T04:18:37;1.33;;;0.32;;
54139;SDS011;40046;53.254;5.900;2023-01-19T04:21:04;7.05;;;0.70;;
54139;SDS011;40046;53.254;5.900;2023-01-19T04:23:31;5.65;;;0.93;;
54139;SDS011;40046;53.254;5.900;2023-01-19T04:26:02;6.40;;;0.90;;
54139;SDS011;40046;53.254;5.900;2023-01-19T04:28:30;5.28;;;0.38;;
54139;SDS011;40046;53.254;5.900;2023-01-19T04:30:56;6.82;;;0.75;;
54139;SDS011;40046;53.254;5.900;2023-01-19T04:33:22;9.88;;;0.80;;
54139;SDS011;40046;53.254;5.900;2023-01-19T04:35:51;12.25;;;1.05;;
54139;SDS011;40046;53.254;5.900;2023-01-19T04:38:18;6.40;;;1.05;;
54139;SDS011;40046;53.254;5.900;2023-01-19T04:40:44;6.93;;;0.75;;
54139;SDS011;40046;53.254;5.900;2023-01-19T04:43:10;7.10;;;0.93;;
54139;SDS011;40046;53.254;5.900;2023-01-19T04:45:38;8.65;;;1.23;;
54139;SDS011;40046;53.254;5.900;2023-01-19T04:48:04;6.60;;;0.60;;
54139;SDS011;40046;53.254;5.900;2023-01-19T04:50:31;7.78;;;0.98;;
54139;SDS011;40046;53.254;5.900;2023-01-19T04:52:57;10.30;;;0.88;;
54139;SDS011;40046;53.254;5.900;2023-01-19T04:55:24;6.95;;;0.82;;
54139;SDS011;40046;53.254;5.900;2023-01-19T04:57:50;7.72;;;1.40;;
54139;SDS011;40046;53.254;5.900;2023-01-19T05:00:17;9.02;;;1.10;;
54139;SDS011;40046;53.254;5.900;2023-01-19T05:02:43;7.30;;;1.27;;
54139;SDS011;40046;53.254;5.900;2023-01-19T05:05:09;9.50;;;1.40;;
54139;SDS011;40046;53.254;5.900;2023-01-19T05:07:36;13.77;;;1.08;;
54139;SDS011;40046;53.254;5.900;2023-01-19T05:10:02;8.73;;;1.17;;
54139;SDS011;40046;53.254;5.900;2023-01-19T05:12:28;12.43;;;0.93;;
54139;SDS011;40046;53.254;5.900;2023-01-19T05:14:55;5.97;;;1.02;;
54139;SDS011;40046;53.254;5.900;2023-01-19T05:17:21;9.80;;;1.73;;
54139;SDS011;40046;53.254;5.900;2023-01-19T05:19:47;10.10;;;1.02;;
54139;SDS011;40046;53.254;5.900;2023-01-19T05:22:13;11.40;;;2.70;;
54139;SDS011;40046;53.254;5.900;2023-01-19T05:24:40;9.02;;;1.08;;
54139;SDS011;40046;53.254;5.900;2023-01-19T05:27:06;7.18;;;0.90;;
54139;SDS011;40046;53.254;5.900;2023-01-19T05:29:32;10.82;;;2.13;;
54139;SDS011;40046;53.254;5.900;2023-01-19T05:31:58;5.43;;;1.27;;
54139;SDS011;40046;53.254;5.900;2023-01-19T05:34:25;13.65;;;2.28;;
54139;SDS011;40046;53.254;5.900;2023-01-19T05:36:51;9.50;;;1.42;;
54139;SDS011;40046;53.254;5.900;2023-01-19T05:39:17;7.90;;;1.15;;
54139;SDS011;40046;53.254;5.900;2023-01-19T05:41:43;8.82;;;1.52;;
54139;SDS011;40046;53.254;5.900;2023-01-19T05:44:10;9.13;;;0.88;;
54139;SDS011;40046;53.254;5.900;2023-01-19T05:46:37;17.10;;;2.67;;
54139;SDS011;40046;53.254;5.900;2023-01-19T05:49:03;16.00;;;2.10;;
54139;SDS011;40046;53.254;5.900;2023-01-19T05:51:31;10.82;;;1.80;;
54139;SDS011;40046;53.254;5.900;2023-01-19T05:54:02;5.90;;;0.98;;
54139;SDS011;40046;53.254;5.900;2023-01-19T05:56:28;5.93;;;0.95;;
54139;SDS011;40046;53.254;5.900;2023-01-19T05:58:55;7.18;;;2.75;;
54139;SDS011;40046;53.254;5.900;2023-01-19T06:01:21;7.40;;;1.23;;
54139;SDS011;40046;53.254;5.900;2023-01-19T06:03:47;12.23;;;3.40;;
54139;SDS011;40046;53.254;5.900;2023-01-19T06:06:13;14.43;;;2.70;;
54139;SDS011;40046;53.254;5.900;2023-01-19T06:08:40;15.30;;;3.00;;
54139;SDS011;40046;53.254;5.900;2023-01-19T06:11:06;25.00;;;3.95;;
54139;SDS011;40046;53.254;5.900;2023-01-19T06:13:33;11.82;;;2.17;;
54139;SDS011;40046;53.254;5.900;2023-01-19T06:15:59;16.77;;;2.67;;
54139;SDS011;40046;53.254;5.900;2023-01-19T06:18:26;15.10;;;3.75;;
54139;SDS011;40046;53.254;5.900;2023-01-19T06:20:52;10.75;;;1.77;;
54139;SDS011;40046;53.254;5.900;2023-01-19T06:23:29;11.23;;;1.52;;
54139;SDS011;40046;53.254;5.900;2023-01-19T06:25:55;13.32;;;1.88;;
54139;SDS011;40046;53.254;5.900;2023-01-19T06:28:22;16.13;;;2.75;;
54139;SDS011;40046;53.254;5.900;2023-01-19T06:30:50;17.27;;;1.95;;
54139;SDS011;40046;53.254;5.900;2023-01-19T06:33:16;12.38;;;2.80;;
54139;SDS011;40046;53.254;5.900;2023-01-19T06:35:43;18.73;;;2.35;;
54139;SDS011;40046;53.254;5.900;2023-01-19T06:38:09;18.13;;;2.20;;
54139;SDS011;40046;53.254;5.900;2023-01-19T06:40:37;13.55;;;3.97;;
54139;SDS011;40046;53.254;5.900;2023-01-19T06:43:04;7.68;;;1.80;;
54139;SDS011;40046;53.254;5.900;2023-01-19T06:45:30;11.18;;;1.55;;
54139;SDS011;40046;53.254;5.900;2023-01-19T06:47:56;17.38;;;2.58;;
54139;SDS011;40046;53.254;5.900;2023-01-19T06:50:22;13.55;;;2.33;;
54139;SDS011;40046;53.254;5.900;2023-01-19T06:52:49;9.00;;;1.35;;
54139;SDS011;40046;53.254;5.900;2023-01-19T06:55:15;13.30;;;4.32;;
54139;SDS011;40046;53.254;5.900;2023-01-19T06:57:42;14.15;;;1.45;;
54139;SDS011;40046;53.254;5.900;2023-01-19T07:00:09;11.63;;;2.67;;
54139;SDS011;40046;53.254;5.900;2023-01-19T07:02:36;17.15;;;1.83;;
54139;SDS011;40046;53.254;5.900;2023-01-19T07:05:02;9.75;;;1.85;;
54139;SDS011;40046;53.254;5.900;2023-01-19T07:07:31;14.43;;;2.08;;
54139;SDS011;40046;53.254;5.900;2023-01-19T07:09:57;20.45;;;3.92;;
54139;SDS011;40046;53.254;5.900;2023-01-19T07:12:23;16.75;;;2.08;;
54139;SDS011;40046;53.254;5.900;2023-01-19T07:14:49;20.48;;;3.10;;
54139;SDS011;40046;53.254;5.900;2023-01-19T07:17:17;20.35;;;3.47;;
54139;SDS011;40046;53.254;5.900;2023-01-19T07:19:43;15.45;;;3.00;;
54139;SDS011;40046;53.254;5.900;2023-01-19T07:22:09;20.50;;;2.65;;
54139;SDS011;40046;53.254;5.900;2023-01-19T07:24:35;15.25;;;2.40;;
54139;SDS011;40046;53.254;5.900;2023-01-19T07:27:02;20.08;;;2.63;;
54139;SDS011;40046;53.254;5.900;2023-01-19T07:29:29;21.05;;;2.10;;
54139;SDS011;40046;53.254;5.900;2023-01-19T07:31:55;10.05;;;1.77;;
54139;SDS011;40046;53.254;5.900;2023-01-19T07:34:21;13.70;;;1.70;;
54139;SDS011;40046;53.254;5.900;2023-01-19T07:36:48;13.23;;;2.50;;
54139;SDS011;40046;53.254;5.900;2023-01-19T07:39:14;13.80;;;2.47;;
54139;SDS011;40046;53.254;5.900;2023-01-19T07:41:40;7.90;;;1.65;;
54139;SDS011;40046;53.254;5.900;2023-01-19T07:44:06;13.57;;;3.00;;
54139;SDS011;40046;53.254;5.900;2023-01-19T07:46:33;15.25;;;2.30;;
54139;SDS011;40046;53.254;5.900;2023-01-19T07:48:59;11.23;;;2.17;;
54139;SDS011;40046;53.254;5.900;2023-01-19T07:51:25;19.60;;;2.08;;
54139;SDS011;40046;53.254;5.900;2023-01-19T07:53:52;15.43;;;2.13;;
54139;SDS011;40046;53.254;5.900;2023-01-19T07:56:18;15.15;;;2.65;;
54139;SDS011;40046;53.254;5.900;2023-01-19T07:58:44;12.85;;;2.72;;
54139;SDS011;40046;53.254;5.900;2023-01-19T08:01:11;21.45;;;3.05;;
54139;SDS011;40046;53.254;5.900;2023-01-19T08:03:38;18.55;;;2.67;;
54139;SDS011;40046;53.254;5.900;2023-01-19T08:06:04;19.70;;;3.03;;
54139;SDS011;40046;53.254;5.900;2023-01-19T08:08:31;18.60;;;3.25;;
54139;SDS011;40046;53.254;5.900;2023-01-19T08:10:58;12.65;;;2.42;;
54139;SDS011;40046;53.254;5.900;2023-01-19T08:13:24;14.88;;;3.40;;
54139;SDS011;40046;53.254;5.900;2023-01-19T08:15:51;19.08;;;3.28;;
54139;SDS011;40046;53.254;5.900;2023-01-19T08:18:18;14.23;;;2.95;;
54139;SDS011;40046;53.254;5.900;2023-01-19T08:20:45;17.90;;;4.10;;
54139;SDS011;40046;53.254;5.900;2023-01-19T08:23:11;24.63;;;4.10;;
54139;SDS011;40046;53.254;5.900;2023-01-19T08:25:39;19.33;;;2.00;;
54139;SDS011;40046;53.254;5.900;2023-01-19T08:28:09;11.23;;;2.00;;
54139;SDS011;40046;53.254;5.900;2023-01-19T08:30:36;22.42;;;4.22;;
54139;SDS011;40046;53.254;5.900;2023-01-19T08:33:03;11.95;;;1.42;;
54139;SDS011;40046;53.254;5.900;2023-01-19T08:35:36;9.60;;;1.20;;
54139;SDS011;40046;53.254;5.900;2023-01-19T08:38:05;15.63;;;1.92;;
54139;SDS011;40046;53.254;5.900;2023-01-19T08:40:33;11.88;;;2.08;;
54139;SDS011;40046;53.254;5.900;2023-01-19T08:43:00;14.35;;;1.92;;
54139;SDS011;40046;53.254;5.900;2023-01-19T08:45:29;10.50;;;1.92;;
54139;SDS011;40046;53.254;5.900;2023-01-19T08:47:55;10.90;;;1.25;;
54139;SDS011;40046;53.254;5.900;2023-01-19T08:50:26;13.98;;;2.58;;
54139;SDS011;40046;53.254;5.900;2023-01-19T08:52:56;10.95;;;3.10;;
54139;SDS011;40046;53.254;5.900;2023-01-19T08:55:23;6.05;;;1.55;;
54139;SDS011;40046;53.254;5.900;2023-01-19T08:57:50;8.35;;;1.73;;
54139;SDS011;40046;53.254;5.900;2023-01-19T09:00:17;15.02;;;2.45;;
54139;SDS011;40046;53.254;5.900;2023-01-19T09:02:43;7.95;;;1.42;;
54139;SDS011;40046;53.254;5.900;2023-01-19T09:05:10;12.05;;;1.10;;
54139;SDS011;40046;53.254;5.900;2023-01-19T09:07:36;5.60;;;1.10;;
54139;SDS011;40046;53.254;5.900;2023-01-19T09:10:03;4.47;;;0.80;;
54139;SDS011;40046;53.254;5.900;2023-01-19T09:12:29;10.18;;;1.55;;
54139;SDS011;40046;53.254;5.900;2023-01-19T09:14:55;5.53;;;1.10;;
54139;SDS011;40046;53.254;5.900;2023-01-19T09:17:22;10.45;;;3.10;;
54139;SDS011;40046;53.254;5.900;2023-01-19T09:19:48;3.55;;;1.50;;
54139;SDS011;40046;53.254;5.900;2023-01-19T09:22:14;14.15;;;2.22;;
54139;SDS011;40046;53.254;5.900;2023-01-19T09:24:40;8.20;;;1.40;;
54139;SDS011;40046;53.254;5.900;2023-01-19T09:27:07;10.75;;;1.92;;
54139;SDS011;40046;53.254;5.900;2023-01-19T09:29:34;10.85;;;2.17;;
54139;SDS011;40046;53.254;5.900;2023-01-19T09:32:01;6.60;;;1.75;;
54139;SDS011;40046;53.254;5.900;2023-01-19T09:34:28;8.55;;;2.10;;
54139;SDS011;40046;53.254;5.900;2023-01-19T09:36:55;13.27;;;1.30;;
54139;SDS011;40046;53.254;5.900;2023-01-19T09:39:21;18.98;;;2.67;;
54139;SDS011;40046;53.254;5.900;2023-01-19T09:41:50;13.55;;;2.33;;
54139;SDS011;40046;53.254;5.900;2023-01-19T09:44:27;15.93;;;2.58;;
54139;SDS011;40046;53.254;5.900;2023-01-19T09:46:54;15.57;;;2.33;;
54139;SDS011;40046;53.254;5.900;2023-01-19T09:51:52;9.38;;;1.35;;
54139;SDS011;40046;53.254;5.900;2023-01-19T09:54:21;14.60;;;1.65;;
54139;SDS011;40046;53.254;5.900;2023-01-19T09:56:48;14.23;;;2.45;;
54139;SDS011;40046;53.254;5.900;2023-01-19T10:04:26;20.45;;;2.25;;
54139;SDS011;40046;53.254;5.900;2023-01-19T10:06:59;12.55;;;2.28;;
54139;SDS011;40046;53.254;5.900;2023-01-19T10:12:16;13.48;;;1.45;;
54139;SDS011;40046;53.254;5.900;2023-01-19T10:14:47;6.88;;;1.08;;
54139;SDS011;40046;53.254;5.900;2023-01-19T10:20:01;11.57;;;1.60;;
54139;SDS011;40046;53.254;5.900;2023-01-19T10:22:28;12.32;;;2.28;;
54139;SDS011;40046;53.254;5.900;2023-01-19T10:24:55;11.35;;;2.28;;
54139;SDS011;40046;53.254;5.900;2023-01-19T10:27:23;12.63;;;1.88;;
54139;SDS011;40046;53.254;5.900;2023-01-19T10:29:51;9.32;;;1.40;;
54139;SDS011;40046;53.254;5.900;2023-01-19T10:32:19;7.75;;;1.23;;
54139;SDS011;40046;53.254;5.900;2023-01-19T10:34:46;8.23;;;1.52;;
54139;SDS011;40046;53.254;5.900;2023-01-19T10:39:46;10.13;;;1.02;;
54139;SDS011;40046;53.254;5.900;2023-01-19T10:42:16;8.50;;;2.00;;
54139;SDS011;40046;53.254;5.900;2023-01-19T10:44:43;5.82;;;1.05;;
54139;SDS011;40046;53.254;5.900;2023-01-19T10:47:14;7.30;;;1.70;;
54139;SDS011;40046;53.254;5.900;2023-01-19T10:49:42;6.25;;;1.20;;
54139;SDS011;40046;53.254;5.900;2023-01-19T10:54:53;9.02;;;1.17;;
54139;SDS011;40046;53.254;5.900;2023-01-19T10:57:41;8.13;;;0.90;;
54139;SDS011;40046;53.254;5.900;2023-01-19T11:00:41;6.95;;;1.05;;
54139;SDS011;40046;53.254;5.900;2023-01-19T11:03:02;7.18;;;1.42;;
54139;SDS011;40046;53.254;5.900;2023-01-19T11:05:29;4.10;;;0.77;;
54139;SDS011;40046;53.254;5.900;2023-01-19T11:07:55;6.03;;;1.25;;
54139;SDS011;40046;53.254;5.900;2023-01-19T11:10:22;9.55;;;1.40;;
54139;SDS011;40046;53.254;5.900;2023-01-19T11:13:05;6.63;;;1.65;;
54139;SDS011;40046;53.254;5.900;2023-01-19T11:15:41;6.80;;;1.15;;
54139;SDS011;40046;53.254;5.900;2023-01-19T11:18:16;9.02;;;1.02;;
54139;SDS011;40046;53.254;5.900;2023-01-19T11:20:48;9.77;;;2.30;;
54139;SDS011;40046;53.254;5.900;2023-01-19T11:25:45;8.70;;;1.42;;
54139;SDS011;40046;53.254;5.900;2023-01-19T11:28:24;13.88;;;1.63;;
54139;SDS011;40046;53.254;5.900;2023-01-19T11:30:55;11.27;;;1.27;;
54139;SDS011;40046;53.254;5.900;2023-01-19T11:33:25;14.82;;;3.03;;
54139;SDS011;40046;53.254;5.900;2023-01-19T11:36:00;6.00;;;2.53;;
54139;SDS011;40046;53.254;5.900;2023-01-19T11:38:26;11.90;;;1.70;;
54139;SDS011;40046;53.254;5.900;2023-01-19T11:40:56;11.75;;;2.25;;
54139;SDS011;40046;53.254;5.900;2023-01-19T11:43:26;9.70;;;1.23;;
54139;SDS011;40046;53.254;5.900;2023-01-19T11:45:52;6.72;;;1.33;;
54139;SDS011;40046;53.254;5.900;2023-01-19T11:48:22;6.78;;;1.85;;
54139;SDS011;40046;53.254;5.900;2023-01-19T11:50:50;10.68;;;1.77;;
54139;SDS011;40046;53.254;5.900;2023-01-19T11:53:23;10.88;;;1.58;;
54139;SDS011;40046;53.254;5.900;2023-01-19T11:55:54;5.65;;;1.17;;
54139;SDS011;40046;53.254;5.900;2023-01-19T11:58:21;8.18;;;1.08;;
54139;SDS011;40046;53.254;5.900;2023-01-19T12:05:50;7.38;;;1.20;;
54139;SDS011;40046;53.254;5.900;2023-01-19T12:08:19;7.70;;;1.33;;
54139;SDS011;40046;53.254;5.900;2023-01-19T12:10:47;7.60;;;1.83;;
54139;SDS011;40046;53.254;5.900;2023-01-19T12:13:32;7.88;;;1.08;;
54139;SDS011;40046;53.254;5.900;2023-01-19T12:15:59;3.42;;;0.85;;
54139;SDS011;40046;53.254;5.900;2023-01-19T12:18:31;10.35;;;1.30;;
54139;SDS011;40046;53.254;5.900;2023-01-19T12:20:58;11.10;;;1.23;;
54139;SDS011;40046;53.254;5.900;2023-01-19T12:23:47;7.70;;;1.27;;
54139;SDS011;40046;53.254;5.900;2023-01-19T12:28:57;9.85;;;1.13;;
54139;SDS011;40046;53.254;5.900;2023-01-19T12:31:25;5.72;;;1.60;;
54139;SDS011;40046;53.254;5.900;2023-01-19T12:33:51;7.03;;;1.23;;
54139;SDS011;40046;53.254;5.900;2023-01-19T12:41:34;10.25;;;3.65;;
54139;SDS011;40046;53.254;5.900;2023-01-19T12:49:42;11.27;;;2.38;;
54139;SDS011;40046;53.254;5.900;2023-01-19T12:54:57;9.43;;;1.05;;
54139;SDS011;40046;53.254;5.900;2023-01-19T12:59:58;3.80;;;1.45;;
54139;SDS011;40046;53.254;5.900;2023-01-19T13:13:17;6.85;;;1.65;;
54139;SDS011;40046;53.254;5.900;2023-01-19T13:15:44;9.38;;;3.70;;
54139;SDS011;40046;53.254;5.900;2023-01-19T13:18:16;13.10;;;2.83;;
54139;SDS011;40046;53.254;5.900;2023-01-19T13:20:43;9.57;;;0.98;;
54139;SDS011;40046;53.254;5.900;2023-01-19T13:25:48;8.25;;;0.98;;
54139;SDS011;40046;53.254;5.900;2023-01-19T13:28:16;6.18;;;0.43;;
54139;SDS011;40046;53.254;5.900;2023-01-19T13:30:53;7.45;;;0.55;;
54139;SDS011;40046;53.254;5.900;2023-01-19T13:33:23;2.90;;;0.30;;
54139;SDS011;40046;53.254;5.900;2023-01-19T13:35:50;3.60;;;0.65;;
54139;SDS011;40046;53.254;5.900;2023-01-19T13:38:17;8.48;;;0.85;;
54139;SDS011;40046;53.254;5.900;2023-01-19T13:40:44;5.13;;;0.63;;
54139;SDS011;40046;53.254;5.900;2023-01-19T13:43:15;2.67;;;0.52;;
54139;SDS011;40046;53.254;5.900;2023-01-19T13:45:45;3.33;;;0.52;;
54139;SDS011;40046;53.254;5.900;2023-01-19T13:48:15;9.68;;;1.00;;
54139;SDS011;40046;53.254;5.900;2023-01-19T13:50:41;8.07;;;0.68;;
54139;SDS011;40046;53.254;5.900;2023-01-19T13:53:18;3.95;;;1.30;;
54139;SDS011;40046;53.254;5.900;2023-01-19T13:55:47;8.38;;;1.33;;
54139;SDS011;40046;53.254;5.900;2023-01-19T13:58:30;5.90;;;2.13;;
54139;SDS011;40046;53.254;5.900;2023-01-19T14:00:56;1.98;;;0.95;;
54139;SDS011;40046;53.254;5.900;2023-01-19T14:03:23;8.18;;;0.70;;
54139;SDS011;40046;53.254;5.900;2023-01-19T14:05:53;7.30;;;1.23;;
54139;SDS011;40046;53.254;5.900;2023-01-19T14:08:19;6.40;;;1.08;;
54139;SDS011;40046;53.254;5.900;2023-01-19T14:10:58;11.60;;;2.03;;
54139;SDS011;40046;53.254;5.900;2023-01-19T14:13:26;6.47;;;1.05;;
54139;SDS011;40046;53.254;5.900;2023-01-19T14:15:57;8.70;;;1.40;;
54139;SDS011;40046;53.254;5.900;2023-01-19T14:18:25;7.70;;;1.00;;
54139;SDS011;40046;53.254;5.900;2023-01-19T14:23:40;8.02;;;0.93;;
54139;SDS011;40046;53.254;5.900;2023-01-19T14:28:52;5.13;;;0.65;;
54139;SDS011;40046;53.254;5.900;2023-01-19T14:31:19;5.38;;;0.57;;
54139;SDS011;40046;53.254;5.900;2023-01-19T14:33:46;1.90;;;0.40;;
54139;SDS011;40046;53.254;5.900;2023-01-19T14:38:42;4.55;;;0.73;;
54139;SDS011;40046;53.254;5.900;2023-01-19T14:41:09;9.13;;;1.60;;
54139;SDS011;40046;53.254;5.900;2023-01-19T14:43:35;3.80;;;1.30;;
54139;SDS011;40046;53.254;5.900;2023-01-19T14:46:02;4.10;;;0.55;;
54139;SDS011;40046;53.254;5.900;2023-01-19T14:48:28;8.00;;;0.85;;
54139;SDS011;40046;53.254;5.900;2023-01-19T14:50:59;2.55;;;0.68;;
54139;SDS011;40046;53.254;5.900;2023-01-19T14:53:25;7.25;;;0.80;;
54139;SDS011;40046;53.254;5.900;2023-01-19T14:55:53;3.42;;;0.52;;
54139;SDS011;40046;53.254;5.900;2023-01-19T14:58:21;3.67;;;0.52;;
54139;SDS011;40046;53.254;5.900;2023-01-19T15:00:47;6.93;;;0.60;;
54139;SDS011;40046;53.254;5.900;2023-01-19T15:03:14;3.42;;;0.40;;
54139;SDS011;40046;53.254;5.900;2023-01-19T15:05:44;3.33;;;0.73;;
54139;SDS011;40046;53.254;5.900;2023-01-19T15:08:14;5.63;;;0.80;;
54139;SDS011;40046;53.254;5.900;2023-01-19T15:10:41;5.53;;;0.52;;
54139;SDS011;40046;53.254;5.900;2023-01-19T15:13:10;4.18;;;0.80;;
54139;SDS011;40046;53.254;5.900;2023-01-19T15:15:41;4.57;;;0.30;;
54139;SDS011;40046;53.254;5.900;2023-01-19T15:18:08;3.05;;;0.63;;
54139;SDS011;40046;53.254;5.900;2023-01-19T15:20:37;5.00;;;0.50;;
54139;SDS011;40046;53.254;5.900;2023-01-19T15:23:03;6.80;;;0.95;;
54139;SDS011;40046;53.254;5.900;2023-01-19T15:25:29;9.10;;;1.23;;
54139;SDS011;40046;53.254;5.900;2023-01-19T15:27:56;6.50;;;1.42;;
54139;SDS011;40046;53.254;5.900;2023-01-19T15:30:24;4.35;;;0.63;;
54139;SDS011;40046;53.254;5.900;2023-01-19T15:32:55;4.45;;;1.38;;
54139;SDS011;40046;53.254;5.900;2023-01-19T15:35:22;3.67;;;1.15;;
54139;SDS011;40046;53.254;5.900;2023-01-19T15:37:50;6.50;;;1.38;;
54139;SDS011;40046;53.254;5.900;2023-01-19T15:40:16;4.40;;;0.50;;
54139;SDS011;40046;53.254;5.900;2023-01-19T15:42:43;5.95;;;0.80;;
54139;SDS011;40046;53.254;5.900;2023-01-19T15:45:20;4.43;;;0.95;;
54139;SDS011;40046;53.254;5.900;2023-01-19T15:47:47;7.55;;;2.13;;
54139;SDS011;40046;53.254;5.900;2023-01-19T15:50:13;8.20;;;2.03;;
54139;SDS011;40046;53.254;5.900;2023-01-19T15:52:39;6.20;;;1.90;;
54139;SDS011;40046;53.254;5.900;2023-01-19T15:55:08;6.45;;;3.35;;
54139;SDS011;40046;53.254;5.900;2023-01-19T15:57:34;13.43;;;5.50;;
54139;SDS011;40046;53.254;5.900;2023-01-19T16:00:01;10.60;;;4.20;;
54139;SDS011;40046;53.254;5.900;2023-01-19T16:02:35;12.93;;;2.92;;
54139;SDS011;40046;53.254;5.900;2023-01-19T16:05:02;9.65;;;3.08;;
54139;SDS011;40046;53.254;5.900;2023-01-19T16:07:28;5.50;;;1.08;;
54139;SDS011;40046;53.254;5.900;2023-01-19T16:09:54;7.20;;;1.35;;